Terminal Aerodrome Forecast
Issued by NWS

Home | Current Version | Previous Version | Text Only | Print | Product List | Glossary On
Versions: 1 2 3 4 5 6 7 8 9 10 11 12 13 14 15 16 17
137
FTUS43 KTOP 221128
TAFMHK
TAF
KMHK 221128Z 2212/2312 01005KT P6SM BKN050
      TEMPO 2212/2214 BKN009=

USA.gov is the U.S. government's official web portal to all federal, state and local government web resources and services.